createdAt,value
2023-01-10T00:00:58.437Z,0.8
2023-01-10T00:02:06.120Z,0.9
2023-01-10T00:03:14.764Z,0.7
2023-01-10T00:04:24.438Z,0.7
2023-01-10T00:05:32.093Z,0.7
2023-01-10T00:06:41.734Z,0.7
2023-01-10T00:07:51.410Z,0.5
2023-01-10T00:09:01.068Z,0.7
2023-01-10T00:10:10.757Z,0.6
2023-01-10T00:11:18.413Z,0.9
2023-01-10T00:12:28.111Z,0.7
2023-01-10T00:13:37.771Z,0.7
2023-01-10T00:14:45.440Z,0.9
2023-01-10T00:15:55.141Z,0.7
2023-01-10T00:17:04.772Z,0.7
2023-01-10T00:18:13.474Z,0.6
2023-01-10T00:19:23.157Z,0.7
2023-01-10T00:20:30.806Z,0.9
2023-01-10T00:21:39.507Z,0.8
2023-01-10T00:22:49.162Z,0.9
2023-01-10T00:23:57.846Z,0.7
2023-01-10T00:25:07.516Z,1
2023-01-10T00:26:14.165Z,0.7
2023-01-10T00:27:23.832Z,0.8
2023-01-10T00:28:36.307Z,0.9
2023-01-10T00:29:44.959Z,0.8
2023-01-10T00:30:53.738Z,0.8
2023-01-10T00:32:03.390Z,0.8
2023-01-10T00:33:13.076Z,0.9
2023-01-10T00:34:22.777Z,1
2023-01-10T00:35:32.443Z,1.1
2023-01-10T00:36:41.205Z,1.1
2023-01-10T00:37:50.871Z,1.1
2023-01-10T00:38:59.532Z,1.4
2023-01-10T00:40:09.214Z,0.9
2023-01-10T00:41:18.861Z,1.3
2023-01-10T00:42:26.526Z,1.4
2023-01-10T00:43:36.210Z,1.1
2023-01-10T00:44:45.865Z,1.8
2023-01-10T00:45:53.549Z,1.1
2023-01-10T00:47:03.201Z,0.9
2023-01-10T00:48:11.885Z,1.1
2023-01-10T00:49:21.593Z,0.8
2023-01-10T00:50:31.253Z,1.1
2023-01-10T00:51:38.884Z,1.2
2023-01-10T00:52:48.585Z,0.8
2023-01-10T00:53:57.287Z,1.1
2023-01-10T00:55:04.938Z,1.1
2023-01-10T00:56:14.700Z,0.7
2023-01-10T00:57:22.361Z,0.9
2023-01-10T00:58:32.024Z,0.9
2023-01-10T00:59:41.729Z,0.8
2023-01-10T01:00:50.510Z,1.2
2023-01-10T01:02:00.186Z,0.7
2023-01-10T01:03:09.827Z,1
2023-01-10T01:04:17.490Z,1
2023-01-10T01:05:27.173Z,0.8
2023-01-10T01:06:34.874Z,1.1
2023-01-10T01:07:43.548Z,0.9
2023-01-10T01:08:53.208Z,1.2
2023-01-10T01:10:01.924Z,1
2023-01-10T01:11:11.591Z,1
2023-01-10T01:12:21.281Z,1.1
2023-01-10T01:13:30.953Z,1.4
2023-01-10T01:14:41.636Z,0.9
2023-01-10T01:15:49.362Z,1.5
2023-01-10T01:16:59.022Z,1.3
2023-01-10T01:18:08.732Z,1.4
2023-01-10T01:19:16.424Z,1.6
2023-01-10T01:20:26.107Z,1.6
2023-01-10T01:21:34.777Z,1.7
2023-01-10T01:22:43.504Z,1.5
2023-01-10T01:23:53.209Z,1.6
2023-01-10T01:25:02.894Z,1.8
2023-01-10T01:26:11.555Z,1.8
2023-01-10T01:27:21.223Z,2.1
2023-01-10T01:28:30.958Z,2.1
2023-01-10T01:29:43.205Z,2.5
2023-01-10T01:30:50.419Z,2.5
2023-01-10T01:31:58.062Z,2.1
2023-01-10T01:33:07.768Z,2
2023-01-10T01:34:16.689Z,2.3
2023-01-10T01:35:26.459Z,2.2
2023-01-10T01:36:36.140Z,1.8
2023-01-10T01:37:43.836Z,2
2023-01-10T01:38:53.536Z,1.2
2023-01-10T01:40:02.210Z,1.6
2023-01-10T01:41:10.908Z,1.6
2023-01-10T01:42:20.577Z,1.4
2023-01-10T01:43:30.271Z,1.3
2023-01-10T01:44:39.962Z,1.6
2023-01-10T01:45:49.667Z,1.6
2023-01-10T01:46:57.338Z,1.3
2023-01-10T01:48:07.018Z,1.5
2023-01-10T01:49:16.742Z,1.7
2023-01-10T01:50:24.401Z,1.5
2023-01-10T01:51:34.292Z,1.5
2023-01-10T01:52:41.993Z,1.4
2023-01-10T01:53:51.709Z,1.4
2023-01-10T01:54:59.390Z,1.1
2023-01-10T01:56:08.071Z,1.3
2023-01-10T01:57:17.871Z,1.2
2023-01-10T01:58:26.586Z,1.3
2023-01-10T01:59:36.264Z,1.6
2023-01-10T02:00:45.935Z,2
2023-01-10T02:01:53.672Z,1.5
2023-01-10T02:03:03.581Z,1.5
2023-01-10T02:04:10.989Z,1.8
2023-01-10T02:05:19.595Z,1.9
2023-01-10T02:06:29.289Z,1.9
2023-01-10T02:07:36.950Z,1.7
2023-01-10T02:08:46.660Z,1.8
2023-01-10T02:09:55.324Z,2.2
2023-01-10T02:11:04.069Z,2
2023-01-10T02:12:13.726Z,2.1
2023-01-10T02:13:23.421Z,2.4
2023-01-10T02:14:32.118Z,2
2023-01-10T02:15:41.903Z,2.5
2023-01-10T02:16:49.472Z,2
2023-01-10T02:17:59.158Z,2.1
2023-01-10T02:19:07.813Z,2.3
2023-01-10T02:20:17.508Z,2
2023-01-10T02:21:27.193Z,2.1
2023-01-10T02:22:34.861Z,1.9
2023-01-10T02:23:44.549Z,1.9
2023-01-10T02:24:54.239Z,2
2023-01-10T02:26:03.952Z,2
2023-01-10T02:27:13.668Z,1.9
2023-01-10T02:28:22.312Z,2.2
2023-01-10T02:29:30.981Z,2.1
2023-01-10T02:30:40.746Z,2.2
2023-01-10T02:31:49.448Z,2.2
2023-01-10T02:33:04.983Z,2
2023-01-10T02:34:09.805Z,2.2
2023-01-10T02:35:17.473Z,2.3
2023-01-10T02:36:27.155Z,2
2023-01-10T02:37:36.924Z,2.1
2023-01-10T02:38:45.601Z,2.1
2023-01-10T02:39:55.301Z,2.4
2023-01-10T02:41:04.995Z,2.2
2023-01-10T02:42:14.685Z,2.1
2023-01-10T02:43:24.410Z,1.8
2023-01-10T02:44:33.077Z,2.3
2023-01-10T02:45:42.754Z,2.1
2023-01-10T02:46:51.506Z,2
2023-01-10T02:48:00.134Z,2.1
2023-01-10T02:49:09.804Z,2.2
2023-01-10T02:50:18.491Z,2.2
2023-01-10T02:51:28.204Z,2.2
2023-01-10T02:52:37.911Z,2
2023-01-10T02:53:46.713Z,2
2023-01-10T02:54:56.429Z,1.3
2023-01-10T02:56:05.114Z,1.6
2023-01-10T02:57:13.782Z,1.4
2023-01-10T02:58:23.478Z,1.7
2023-01-10T02:59:32.209Z,1.7
2023-01-10T03:00:41.891Z,1.9
2023-01-10T03:01:51.595Z,1.8
2023-01-10T03:03:00.237Z,1.8
2023-01-10T03:04:09.931Z,2.2
2023-01-10T03:05:19.623Z,2.2
2023-01-10T03:06:29.341Z,2
2023-01-10T03:07:39.077Z,1.8
2023-01-10T03:08:48.774Z,2.2
2023-01-10T03:09:58.519Z,2.4
2023-01-10T03:11:08.257Z,2.2
2023-01-10T03:12:16.960Z,2.2
2023-01-10T03:13:26.657Z,1.7
2023-01-10T03:14:35.340Z,1.6
2023-01-10T03:15:44.079Z,1.9
2023-01-10T03:16:53.711Z,1.7
2023-01-10T03:18:02.417Z,1.7
2023-01-10T03:19:11.083Z,2.2
2023-01-10T03:20:20.764Z,1.5
2023-01-10T03:21:28.436Z,1.9
2023-01-10T03:22:38.119Z,1.8
2023-01-10T03:23:47.809Z,1.6
2023-01-10T03:24:56.488Z,1.8
2023-01-10T03:26:06.180Z,1.7
2023-01-10T03:27:14.870Z,2.1
2023-01-10T03:28:23.552Z,1.9
2023-01-10T03:29:33.320Z,2
2023-01-10T03:30:42.024Z,1.8
2023-01-10T03:31:51.668Z,2
2023-01-10T03:33:01.344Z,2.4
2023-01-10T03:34:09.037Z,2.2
2023-01-10T03:35:19.742Z,2.4
2023-01-10T03:36:28.460Z,2.1
2023-01-10T03:37:37.154Z,2.2
2023-01-10T03:38:46.845Z,1.8
2023-01-10T03:39:54.526Z,2
2023-01-10T03:41:04.252Z,2.1
2023-01-10T03:42:13.938Z,2.3
2023-01-10T03:43:21.624Z,2.2
2023-01-10T03:44:31.322Z,2.2
2023-01-10T03:45:38.983Z,2
2023-01-10T03:46:48.772Z,2.3
2023-01-10T03:47:58.406Z,2.1
2023-01-10T03:49:07.088Z,2.1
2023-01-10T03:50:16.773Z,2
2023-01-10T03:51:25.440Z,1.9
2023-01-10T03:52:35.174Z,1.9
2023-01-10T03:53:43.855Z,2.2
2023-01-10T03:54:52.500Z,1.8
2023-01-10T03:56:02.198Z,1.7
2023-01-10T03:57:09.935Z,1.9
2023-01-10T03:58:19.654Z,1.6
2023-01-10T03:59:29.340Z,1.7
2023-01-10T04:00:37.033Z,1.5
2023-01-10T04:01:46.844Z,1.5
2023-01-10T04:02:55.509Z,1.2
2023-01-10T04:04:04.226Z,1.6
2023-01-10T04:05:13.888Z,1.6
2023-01-10T04:06:23.563Z,1.2
2023-01-10T04:07:33.282Z,1.4
2023-01-10T04:08:42.957Z,1.4
2023-01-10T04:09:51.750Z,1.6
2023-01-10T04:11:00.457Z,1.5
2023-01-10T04:12:10.167Z,1.4
2023-01-10T04:13:18.841Z,1.7
2023-01-10T04:14:28.539Z,1.7
2023-01-10T04:15:37.341Z,1.7
2023-01-10T04:16:45.945Z,1.5
2023-01-10T04:17:55.627Z,1.5
2023-01-10T04:19:04.341Z,1.8
2023-01-10T04:20:14.046Z,1.4
2023-01-10T04:21:22.719Z,1.4
2023-01-10T04:22:31.431Z,1.7
2023-01-10T04:23:41.140Z,1.6
2023-01-10T04:24:49.876Z,1.9
2023-01-10T04:25:58.589Z,1.7
2023-01-10T04:27:08.320Z,1.3
2023-01-10T04:28:15.977Z,1.6
2023-01-10T04:29:25.680Z,1.7
2023-01-10T04:30:35.398Z,1.8
2023-01-10T04:31:44.092Z,2
2023-01-10T04:32:53.762Z,1.9
2023-01-10T04:34:02.436Z,1.9
2023-01-10T04:35:11.138Z,1.6
2023-01-10T04:36:20.800Z,1.7
2023-01-10T04:37:29.456Z,1.6
2023-01-10T04:38:39.140Z,1.9
2023-01-10T04:39:47.835Z,1.9
2023-01-10T04:40:55.559Z,1.8
2023-01-10T04:42:05.252Z,1.7
2023-01-10T04:43:13.937Z,1.8
2023-01-10T04:44:24.628Z,1.9
2023-01-10T04:45:34.286Z,2.2
2023-01-10T04:46:42.967Z,2.1
2023-01-10T04:47:52.636Z,1.9
2023-01-10T04:49:02.318Z,1.8
2023-01-10T04:50:11.007Z,2.1
2023-01-10T04:51:20.732Z,2.1
2023-01-10T04:52:29.361Z,2.2
2023-01-10T04:53:39.063Z,2.1
2023-01-10T04:54:48.731Z,2
2023-01-10T04:55:56.419Z,2.1
2023-01-10T04:57:06.092Z,2.2
2023-01-10T04:58:14.778Z,2.1
2023-01-10T04:59:23.458Z,2.1
2023-01-10T05:00:33.136Z,1.9
2023-01-10T05:01:41.868Z,2
2023-01-10T05:02:51.609Z,2
2023-01-10T05:04:02.146Z,1.7
2023-01-10T05:05:09.820Z,1.8
2023-01-10T05:06:19.508Z,1.7
2023-01-10T05:07:29.203Z,2
2023-01-10T05:08:36.859Z,2.1
2023-01-10T05:09:46.550Z,2.4
2023-01-10T05:10:54.237Z,1.9
2023-01-10T05:12:03.010Z,2.1
2023-01-10T05:13:12.734Z,2.1
2023-01-10T05:14:22.422Z,2.4
2023-01-10T05:15:32.122Z,2.1
2023-01-10T05:16:41.874Z,2
2023-01-10T05:17:50.498Z,2
2023-01-10T05:19:00.211Z,1.9
2023-01-10T05:20:07.877Z,1.6
2023-01-10T05:21:17.559Z,1.4
2023-01-10T05:22:27.232Z,1.4
2023-01-10T05:23:35.918Z,1.2
2023-01-10T05:24:45.596Z,1
2023-01-10T05:25:55.247Z,0.9
2023-01-10T05:27:03.930Z,0.8
2023-01-10T05:28:13.614Z,0.6
2023-01-10T05:29:23.295Z,0.7
2023-01-10T05:30:33.004Z,0.8
2023-01-10T05:31:42.673Z,0.6
2023-01-10T05:32:50.330Z,0.9
2023-01-10T05:34:00.046Z,0.6
2023-01-10T05:35:08.724Z,0.7
2023-01-10T05:36:16.451Z,0.8
2023-01-10T05:37:26.144Z,0.7
2023-01-10T05:38:34.834Z,0.8
2023-01-10T05:39:43.524Z,0.8
2023-01-10T05:40:53.235Z,0.9
2023-01-10T05:42:00.937Z,0.8
2023-01-10T05:43:10.658Z,0.6
2023-01-10T05:44:20.343Z,0.6
2023-01-10T05:45:29.079Z,0.6
2023-01-10T05:46:38.753Z,0.8
2023-01-10T05:47:46.460Z,0.7
2023-01-10T05:48:56.158Z,0.8
2023-01-10T05:50:04.832Z,0.6
2023-01-10T05:51:13.510Z,0.7
2023-01-10T05:52:23.178Z,0.8
2023-01-10T05:53:31.873Z,0.6
2023-01-10T05:54:41.567Z,0.7
2023-01-10T05:55:50.281Z,0.8
2023-01-10T05:56:57.968Z,0.8
2023-01-10T05:58:06.676Z,0.8
2023-01-10T05:59:27.442Z,0.7
2023-01-10T06:00:26.007Z,0.7
2023-01-10T06:01:35.668Z,0.6
2023-01-10T06:02:44.452Z,0.7
2023-01-10T06:03:54.062Z,0.7
2023-01-10T06:05:03.785Z,0.4
2023-01-10T06:06:12.488Z,0.5
2023-01-10T06:07:22.194Z,0.6
2023-01-10T06:08:30.872Z,0.4
2023-01-10T06:09:39.546Z,0.5
2023-01-10T06:10:49.229Z,0.6
2023-01-10T06:11:57.964Z,0.7
2023-01-10T06:13:07.586Z,0.7
2023-01-10T06:14:16.267Z,0.7
2023-01-10T06:15:23.943Z,0.8
2023-01-10T06:16:33.729Z,0.7
2023-01-10T06:17:43.432Z,0.7
2023-01-10T06:18:52.110Z,0.5
2023-01-10T06:20:01.814Z,0.5
2023-01-10T06:21:09.512Z,0.6
2023-01-10T06:22:19.183Z,0.5
2023-01-10T06:23:28.891Z,0.7
2023-01-10T06:24:37.566Z,0.6
2023-01-10T06:25:47.263Z,0.8
2023-01-10T06:26:54.958Z,0.8
2023-01-10T06:28:03.708Z,1.2
2023-01-10T06:29:13.443Z,0.9
2023-01-10T06:30:23.121Z,1.2
2023-01-10T06:31:32.877Z,1.3
2023-01-10T06:32:41.555Z,1.5
2023-01-10T06:33:50.277Z,1.5
2023-01-10T06:34:59.981Z,1.4
2023-01-10T06:36:08.661Z,1.6
2023-01-10T06:37:20.263Z,1.4
2023-01-10T06:38:29.013Z,1.8
2023-01-10T06:39:37.784Z,1.8
2023-01-10T06:40:47.474Z,1.8
2023-01-10T06:41:57.159Z,1.9
2023-01-10T06:43:05.835Z,2
2023-01-10T06:44:15.554Z,1.9
2023-01-10T06:45:24.237Z,2.1
2023-01-10T06:46:32.933Z,2.3
2023-01-10T06:47:42.652Z,2.1
2023-01-10T06:48:51.367Z,1.9
2023-01-10T06:50:01.052Z,2.5
2023-01-10T06:51:09.814Z,2.1
2023-01-10T06:52:18.525Z,2.8
2023-01-10T06:53:28.201Z,2
2023-01-10T06:54:37.895Z,2.4
2023-01-10T06:55:47.578Z,2.3
2023-01-10T06:56:57.280Z,2.5
2023-01-10T06:58:04.986Z,2.2
2023-01-10T06:59:14.687Z,2.1
2023-01-10T07:00:23.359Z,1.8
2023-01-10T07:01:32.154Z,1.8
2023-01-10T07:02:41.736Z,1.6
2023-01-10T07:03:49.516Z,1
2023-01-10T07:04:59.162Z,0.9
2023-01-10T07:06:08.849Z,0.8
2023-01-10T07:07:17.555Z,1
2023-01-10T07:08:27.240Z,0.9
2023-01-10T07:09:36.939Z,0.8
2023-01-10T07:10:45.612Z,0.6
2023-01-10T07:11:55.320Z,0.5
2023-01-10T07:13:03.981Z,0.7
2023-01-10T07:14:12.718Z,0.7
2023-01-10T07:15:22.379Z,0.5
2023-01-10T07:16:31.155Z,0.6
2023-01-10T07:17:40.825Z,0.7
2023-01-10T07:18:49.476Z,0.7
2023-01-10T07:20:00.225Z,0.9
2023-01-10T07:21:09.916Z,0.6
2023-01-10T07:22:17.574Z,0.8
2023-01-10T07:23:26.272Z,0.7
2023-01-10T07:24:35.976Z,0.8
2023-01-10T07:25:43.664Z,0.5
2023-01-10T07:26:53.399Z,0.7
2023-01-10T07:28:03.865Z,0.6
2023-01-10T07:29:12.556Z,0.6
2023-01-10T07:30:24.295Z,0.8
2023-01-10T07:31:30.981Z,0.8
2023-01-10T07:32:40.659Z,0.8
2023-01-10T07:33:51.303Z,0.9
2023-01-10T07:35:00.975Z,0.8
2023-01-10T07:36:10.688Z,0.7
2023-01-10T07:37:19.350Z,0.6
2023-01-10T07:38:29.056Z,0.8
2023-01-10T07:39:38.707Z,0.6
2023-01-10T07:40:48.414Z,0.7
2023-01-10T07:41:57.101Z,0.6
2023-01-10T07:43:06.824Z,0.5
2023-01-10T07:44:14.481Z,0.6
2023-01-10T07:45:24.173Z,0.8
2023-01-10T07:46:32.941Z,0.6
2023-01-10T07:47:42.561Z,0.6
2023-01-10T07:48:51.285Z,0.6
2023-01-10T07:49:58.982Z,0.6
2023-01-10T07:51:08.669Z,0.4
2023-01-10T07:52:17.377Z,0.6
2023-01-10T07:53:26.049Z,0.6
2023-01-10T07:54:35.807Z,0.6
2023-01-10T07:55:44.525Z,0.7
2023-01-10T07:56:54.254Z,1
2023-01-10T07:58:03.957Z,0.7
2023-01-10T07:59:11.645Z,0.8
2023-01-10T08:00:21.320Z,0.8
2023-01-10T08:01:31.049Z,1.3
2023-01-10T08:02:39.874Z,1
2023-01-10T08:03:49.480Z,1.6
2023-01-10T08:04:58.080Z,1.5
2023-01-10T08:06:07.868Z,1.8
2023-01-10T08:07:16.554Z,2.2
2023-01-10T08:08:24.280Z,2.4
2023-01-10T08:09:33.974Z,2.5
2023-01-10T08:10:42.698Z,2.4
2023-01-10T08:11:51.420Z,3
2023-01-10T08:13:09.773Z,3
2023-01-10T08:14:10.807Z,3.1
2023-01-10T08:15:20.435Z,2.9
2023-01-10T08:16:29.224Z,2.6
2023-01-10T08:17:37.931Z,2.7
2023-01-10T08:18:47.638Z,2.2
2023-01-10T08:19:56.375Z,2.3
2023-01-10T08:21:06.060Z,2.1
2023-01-10T08:22:15.762Z,2.3
2023-01-10T08:23:24.527Z,2.4
2023-01-10T08:24:34.227Z,2
2023-01-10T08:25:42.878Z,1.7
2023-01-10T08:26:51.586Z,1.9
2023-01-10T08:28:01.319Z,2.3
2023-01-10T08:29:09.996Z,2.2
2023-01-10T08:30:18.755Z,1.9
2023-01-10T08:31:28.504Z,1.6
2023-01-10T08:32:37.136Z,2
2023-01-10T08:33:46.879Z,1.7
2023-01-10T08:34:55.532Z,1.8
2023-01-10T08:36:04.268Z,1.9
2023-01-10T08:37:14.902Z,1.8
2023-01-10T08:38:24.617Z,1.7
2023-01-10T08:39:33.279Z,1.9
2023-01-10T08:40:42.969Z,2
2023-01-10T08:41:51.627Z,1.7
2023-01-10T08:43:01.317Z,1.6
2023-01-10T08:44:10.985Z,1.7
2023-01-10T08:45:19.643Z,1.6
2023-01-10T08:46:29.375Z,1.4
2023-01-10T08:47:40.436Z,1.4
2023-01-10T08:48:50.124Z,1.3
2023-01-10T08:49:59.794Z,1.6
2023-01-10T08:51:09.478Z,1.5
2023-01-10T08:52:19.155Z,1.9
2023-01-10T08:53:27.863Z,1.4
2023-01-10T08:54:36.559Z,1.1
2023-01-10T08:55:46.230Z,1.5
2023-01-10T08:56:54.909Z,1.4
2023-01-10T08:58:04.649Z,1.7
2023-01-10T08:59:14.311Z,1.4
2023-01-10T09:00:22.060Z,1.8
2023-01-10T09:01:30.757Z,1.2
2023-01-10T09:02:39.372Z,1.3
2023-01-10T09:03:49.060Z,1.3
2023-01-10T09:04:58.746Z,1.3
2023-01-10T09:06:06.467Z,1.8
2023-01-10T09:07:15.183Z,1.3
2023-01-10T09:08:24.841Z,1.9
2023-01-10T09:09:32.553Z,2.1
2023-01-10T09:10:42.259Z,2.6
2023-01-10T09:11:51.924Z,2.2
2023-01-10T09:13:01.944Z,2.2
2023-01-10T09:14:11.347Z,1.8
2023-01-10T09:15:20.044Z,2.1
2023-01-10T09:16:29.744Z,1.5
2023-01-10T09:17:40.420Z,1.6
2023-01-10T09:18:48.085Z,1.6
2023-01-10T09:19:57.745Z,1.4
2023-01-10T09:21:06.429Z,1.6
2023-01-10T09:22:15.102Z,1.7
2023-01-10T09:23:24.797Z,1.7
2023-01-10T09:24:32.430Z,1.4
2023-01-10T09:25:42.092Z,1.4
2023-01-10T09:26:51.780Z,1.2
2023-01-10T09:28:00.446Z,1
2023-01-10T09:29:10.116Z,1
2023-01-10T09:30:19.881Z,0.8
2023-01-10T09:31:28.492Z,1.2
2023-01-10T09:32:38.321Z,2
2023-01-10T09:33:47.929Z,1.7
2023-01-10T09:34:57.604Z,1.2
2023-01-10T09:36:09.098Z,1
2023-01-10T09:37:17.016Z,1
2023-01-10T09:38:26.722Z,1.2
2023-01-10T09:39:35.408Z,1.4
2023-01-10T09:40:43.051Z,1.9
2023-01-10T09:41:52.711Z,1.7
2023-01-10T09:43:02.483Z,2
2023-01-10T09:44:12.163Z,2.2
2023-01-10T09:45:20.820Z,2.4
2023-01-10T09:46:29.597Z,2.3
2023-01-10T09:47:39.266Z,2.3
2023-01-10T09:48:46.939Z,2.3
2023-01-10T09:49:56.644Z,2.1
2023-01-10T09:51:06.381Z,2
2023-01-10T09:52:15.071Z,2.6
2023-01-10T09:53:24.884Z,2.1
2023-01-10T09:54:34.564Z,2
2023-01-10T09:55:43.269Z,2
2023-01-10T09:56:52.905Z,1.5
2023-01-10T09:58:00.567Z,2.3
2023-01-10T09:59:10.286Z,1.6
2023-01-10T10:00:18.959Z,1.7
2023-01-10T10:01:26.634Z,1.5
2023-01-10T10:02:36.258Z,1.4
2023-01-10T10:03:46.011Z,1.4
2023-01-10T10:04:55.652Z,1.3
2023-01-10T10:06:11.857Z,1.2
2023-01-10T10:07:15.002Z,1.2
2023-01-10T10:08:24.718Z,1.5
2023-01-10T10:09:34.431Z,1.3
2023-01-10T10:10:43.066Z,1.4
2023-01-10T10:11:52.782Z,1.9
2023-01-10T10:13:01.453Z,2.1
2023-01-10T10:14:10.104Z,2.4
2023-01-10T10:15:19.777Z,1.7
2023-01-10T10:16:27.526Z,1.6
2023-01-10T10:17:37.131Z,1.1
2023-01-10T10:18:45.811Z,1.2
2023-01-10T10:19:53.484Z,1.2
2023-01-10T10:21:03.190Z,1.7
2023-01-10T10:22:11.863Z,1.9
2023-01-10T10:23:20.532Z,1.3
2023-01-10T10:24:30.222Z,2
2023-01-10T10:25:37.970Z,2.9
2023-01-10T10:26:47.597Z,2.5
2023-01-10T10:27:57.150Z,2.5
2023-01-10T10:29:05.799Z,2.8
2023-01-10T10:30:15.525Z,2.3
2023-01-10T10:31:23.220Z,1.1
2023-01-10T10:32:32.859Z,1.1
2023-01-10T10:33:42.526Z,1.1
2023-01-10T10:34:51.196Z,1.1
2023-01-10T10:36:00.900Z,1.6
2023-01-10T10:37:09.532Z,1.5
2023-01-10T10:38:18.205Z,1.6
2023-01-10T10:39:27.887Z,1.9
2023-01-10T10:40:37.575Z,2.3
2023-01-10T10:41:46.264Z,1.7
2023-01-10T10:42:55.978Z,1.8
2023-01-10T10:44:04.708Z,1.6
2023-01-10T10:45:14.346Z,0.9
2023-01-10T10:46:24.040Z,0.7
2023-01-10T10:47:31.710Z,0.9
2023-01-10T10:48:41.385Z,1.1
2023-01-10T10:49:51.061Z,0.8
2023-01-10T10:50:59.737Z,0.4
2023-01-10T10:52:09.402Z,0.6
2023-01-10T10:53:18.144Z,1
2023-01-10T10:54:27.797Z,0.6
2023-01-10T10:55:37.484Z,2
2023-01-10T10:56:46.142Z,4.9
2023-01-10T10:58:00.325Z,3.9
2023-01-10T10:59:05.491Z,0.5
2023-01-10T11:00:15.314Z,0.3
2023-01-10T11:01:26.584Z,0.6
2023-01-10T11:02:34.566Z,0.5
2023-01-10T11:03:44.239Z,0.4
2023-01-10T11:04:53.982Z,0.4
2023-01-10T11:06:01.601Z,0.3
2023-01-10T11:07:11.309Z,0.3
2023-01-10T11:08:20.154Z,0.3
2023-01-10T11:09:30.093Z,0.4
2023-01-10T11:10:39.933Z,0.2
2023-01-10T11:11:49.897Z,0.3
2023-01-10T11:12:59.843Z,1.6
2023-01-10T11:14:08.784Z,2.1
2023-01-10T11:15:18.755Z,2.1
2023-01-10T11:16:28.760Z,4.3
2023-01-10T11:17:37.385Z,3.1
2023-01-10T11:18:46.097Z,0.9
2023-01-10T11:19:55.777Z,0.4
2023-01-10T11:21:03.642Z,0.5
2023-01-10T11:22:13.355Z,0.4
2023-01-10T11:23:22.057Z,0.4
2023-01-10T11:24:31.787Z,0.7
2023-01-10T11:25:41.426Z,0.7
2023-01-10T11:26:49.123Z,0.8
2023-01-10T11:27:58.864Z,0.5
2023-01-10T11:29:07.533Z,0.8
2023-01-10T11:30:17.207Z,0.8
2023-01-10T11:31:26.981Z,0.9
2023-01-10T11:32:36.569Z,1.1
2023-01-10T11:33:46.144Z,1.4
2023-01-10T11:34:54.975Z,1.6
2023-01-10T11:36:03.683Z,1.8
2023-01-10T11:37:13.357Z,1.7
2023-01-10T11:38:23.067Z,1.2
2023-01-10T11:39:31.753Z,1.5
2023-01-10T11:40:41.478Z,1.8
2023-01-10T11:41:51.149Z,2
2023-01-10T11:43:00.810Z,2.1
2023-01-10T11:44:09.471Z,2.7
2023-01-10T11:45:18.197Z,2.2
2023-01-10T11:46:27.867Z,1.9
2023-01-10T11:47:41.605Z,2.4
2023-01-10T11:49:06.586Z,3.5
2023-01-10T11:49:58.840Z,2.6
2023-01-10T11:51:07.538Z,2.7
2023-01-10T11:52:17.249Z,2.4
2023-01-10T11:53:24.910Z,2.8
2023-01-10T11:54:32.592Z,3.2
2023-01-10T11:55:42.260Z,2.8
2023-01-10T11:56:50.984Z,3.3
2023-01-10T11:58:00.794Z,2.6
2023-01-10T11:59:10.389Z,2.5
2023-01-10T12:00:19.074Z,2.1
2023-01-10T12:01:28.826Z,2.3
2023-01-10T12:02:37.593Z,1.2
2023-01-10T12:03:46.204Z,1.3
2023-01-10T12:04:55.892Z,0.9
2023-01-10T12:06:04.501Z,0.8
2023-01-10T12:07:14.159Z,0.6
2023-01-10T12:08:23.879Z,0.9
2023-01-10T12:09:33.560Z,0.8
2023-01-10T12:10:43.234Z,0.9
2023-01-10T12:11:51.918Z,1.2
2023-01-10T12:13:01.591Z,1.9
2023-01-10T12:14:11.256Z,1.4
2023-01-10T12:15:19.926Z,1.6
2023-01-10T12:16:29.709Z,1.9
2023-01-10T12:17:39.365Z,1.8
2023-01-10T12:18:48.061Z,2
2023-01-10T12:19:57.775Z,2.3
2023-01-10T12:21:07.430Z,1.8
2023-01-10T12:22:16.141Z,2.4
2023-01-10T12:23:25.931Z,2.9
2023-01-10T12:24:35.631Z,3.3
2023-01-10T12:25:44.305Z,3.7
2023-01-10T12:26:54.037Z,5.3
2023-01-10T12:28:02.719Z,5.9
2023-01-10T12:29:12.383Z,5.8
2023-01-10T12:30:22.044Z,4.1
2023-01-10T12:31:29.767Z,4
2023-01-10T12:32:39.470Z,3.1
2023-01-10T12:33:49.136Z,4.2
2023-01-10T12:34:58.910Z,3.2
2023-01-10T12:36:08.587Z,3.1
2023-01-10T12:37:17.195Z,3.4
2023-01-10T12:38:26.860Z,3.1
2023-01-10T12:39:36.543Z,1.2
2023-01-10T12:40:44.231Z,1.7
2023-01-10T12:41:53.912Z,2.1
2023-01-10T12:43:02.619Z,2.7
2023-01-10T12:44:12.310Z,2.9
2023-01-10T12:45:21.994Z,2.9
2023-01-10T12:47:00.335Z,1.4
2023-01-10T12:47:42.395Z,0.9
2023-01-10T12:48:52.047Z,0.7
2023-01-10T12:49:59.736Z,0.9
2023-01-10T12:51:09.417Z,1.4
2023-01-10T12:52:17.149Z,4.8
2023-01-10T12:53:26.815Z,4.5
2023-01-10T12:54:36.522Z,6.1
2023-01-10T12:55:46.180Z,4.4
2023-01-10T12:56:55.871Z,4.4
2023-01-10T12:58:04.538Z,1.7
2023-01-10T12:59:14.209Z,1.2
2023-01-10T13:00:23.920Z,1.3
2023-01-10T13:01:31.788Z,1.7
2023-01-10T13:02:41.373Z,2
2023-01-10T13:03:50.981Z,2.4
2023-01-10T13:05:00.649Z,2.3
2023-01-10T13:06:10.348Z,2.4
2023-01-10T13:07:19.097Z,4.3
2023-01-10T13:08:27.796Z,3.6
2023-01-10T13:09:37.442Z,6.1
2023-01-10T13:10:45.393Z,5.6
2023-01-10T13:11:55.094Z,6.6
2023-01-10T13:13:04.787Z,4.6
2023-01-10T13:14:12.534Z,4.9
2023-01-10T13:15:22.192Z,5.7
2023-01-10T13:16:31.839Z,5.5
2023-01-10T13:17:41.652Z,3.4
2023-01-10T13:18:50.313Z,1.7
2023-01-10T13:19:58.974Z,3.1
2023-01-10T13:21:07.723Z,3.2
2023-01-10T13:22:17.386Z,2.9
2023-01-10T13:23:25.097Z,3.6
2023-01-10T13:24:34.746Z,3.2
2023-01-10T13:25:42.412Z,3
2023-01-10T13:26:50.127Z,3.8
2023-01-10T13:27:59.798Z,3.3
2023-01-10T13:29:08.492Z,4.3
2023-01-10T13:30:18.172Z,2.9
2023-01-10T13:31:27.959Z,2.2
2023-01-10T13:32:37.684Z,3
2023-01-10T13:33:47.393Z,4.6
2023-01-10T13:34:56.386Z,0.9
2023-01-10T13:36:05.320Z,0.7
2023-01-10T13:37:15.082Z,0.5
2023-01-10T13:38:24.089Z,0.5
2023-01-10T13:39:32.874Z,0.7
2023-01-10T13:40:43.193Z,0.5
2023-01-10T13:41:51.961Z,0.3
2023-01-10T13:43:01.666Z,0.6
2023-01-10T13:44:10.391Z,0.3
2023-01-10T13:45:21.124Z,0.4
2023-01-10T13:46:31.089Z,0.4
2023-01-10T13:47:39.745Z,0.3
2023-01-10T13:49:04.156Z,0.5
2023-01-10T13:50:28.313Z,0.4
2023-01-10T13:51:37.033Z,0.6
2023-01-10T13:52:47.785Z,0.6
2023-01-10T13:53:56.462Z,0.6
2023-01-10T13:55:05.131Z,0.4
2023-01-10T13:56:14.012Z,0.6
2023-01-10T13:57:22.943Z,3.4
2023-01-10T13:58:32.917Z,2
2023-01-10T13:59:41.706Z,2.8
2023-01-10T14:00:51.156Z,3.6
2023-01-10T14:02:00.762Z,4.4
2023-01-10T14:03:10.418Z,1.2
2023-01-10T14:04:21.481Z,0.5
2023-01-10T14:05:31.862Z,0.4
2023-01-10T14:06:39.805Z,0.5
2023-01-10T14:07:54.780Z,0.6
2023-01-10T14:09:05.196Z,0.7
2023-01-10T14:10:16.271Z,0.5
2023-01-10T14:11:26.289Z,0.7
2023-01-10T14:12:36.247Z,0.6
2023-01-10T14:13:46.563Z,2.7
2023-01-10T14:14:56.322Z,1.9
2023-01-10T14:16:05.819Z,3.6
2023-01-10T14:17:19.900Z,2.9
2023-01-10T14:18:29.782Z,2.6
2023-01-10T14:19:41.409Z,3.1
2023-01-10T14:20:55.762Z,3.7
2023-01-10T14:22:04.460Z,3.3
2023-01-10T14:23:14.204Z,4.3
2023-01-10T14:24:28.124Z,4
2023-01-10T14:25:37.864Z,4.2
2023-01-10T14:26:47.593Z,5
2023-01-10T14:27:55.366Z,6.1
2023-01-10T14:29:06.606Z,6.5
2023-01-10T14:30:18.612Z,7.9
2023-01-10T14:31:27.370Z,7.9
2023-01-10T14:32:38.392Z,8.2
2023-01-10T14:33:46.960Z,6.1
2023-01-10T14:34:55.867Z,7.1
2023-01-10T14:36:05.700Z,7.4
2023-01-10T14:37:13.374Z,5.3
2023-01-10T14:38:22.071Z,6.4
2023-01-10T14:39:31.742Z,5.8
2023-01-10T14:40:41.798Z,10.3
2023-01-10T14:41:56.566Z,6.6
2023-01-10T14:43:05.577Z,5.3
2023-01-10T14:44:14.338Z,6.6
2023-01-10T14:45:26.585Z,6.1
2023-01-10T14:46:35.402Z,6.4
2023-01-10T14:47:45.404Z,5.4
2023-01-10T14:48:55.418Z,6.7
2023-01-10T14:50:03.460Z,7.8
2023-01-10T14:51:14.167Z,9.9
2023-01-10T14:52:27.885Z,10.6
2023-01-10T14:53:36.535Z,11.5
2023-01-10T14:54:47.842Z,9.5
2023-01-10T14:55:55.812Z,8.6
2023-01-10T14:57:06.056Z,8.9
2023-01-10T14:58:15.813Z,7.9
2023-01-10T14:59:28.179Z,5.3
2023-01-10T15:00:39.126Z,6.8
2023-01-10T15:01:52.470Z,5.7
2023-01-10T15:03:01.270Z,5.2
2023-01-10T15:04:10.944Z,5.2
2023-01-10T15:05:19.756Z,4.4
2023-01-10T15:06:29.436Z,6.2
2023-01-10T15:07:39.254Z,7.7
2023-01-10T15:08:47.984Z,11.4
2023-01-10T15:09:57.660Z,12.4
2023-01-10T15:11:07.902Z,12.3
2023-01-10T15:12:22.709Z,12.4
2023-01-10T15:13:32.433Z,8.9
2023-01-10T15:14:42.389Z,10.7
2023-01-10T15:15:52.388Z,12.7
2023-01-10T15:17:03.657Z,11.9
2023-01-10T15:18:13.599Z,14.3
2023-01-10T15:19:23.807Z,14.3
2023-01-10T15:20:33.484Z,12.9
2023-01-10T15:21:43.156Z,11.5
2023-01-10T15:22:53.949Z,7.3
2023-01-10T15:24:03.010Z,8.5
2023-01-10T15:25:12.135Z,12.3
2023-01-10T15:26:22.514Z,10.5
2023-01-10T15:27:32.220Z,7.4
2023-01-10T15:28:41.912Z,8
2023-01-10T15:29:51.953Z,7.4
2023-01-10T15:31:02.252Z,4.6
2023-01-10T15:32:12.022Z,3.8
2023-01-10T15:33:20.858Z,2.5
2023-01-10T15:34:29.900Z,1.9
2023-01-10T15:35:39.596Z,1.7
2023-01-10T15:36:49.922Z,1.6
2023-01-10T15:37:59.623Z,1.3
2023-01-10T15:39:09.278Z,1.2
2023-01-10T15:40:22.974Z,1.1
2023-01-10T15:41:32.962Z,1.5
2023-01-10T15:42:41.851Z,0.8
2023-01-10T15:43:59.272Z,1.1
2023-01-10T15:45:09.612Z,1.8
2023-01-10T15:46:19.718Z,1.3
2023-01-10T15:47:29.865Z,1.7
2023-01-10T15:48:37.575Z,0.9
2023-01-10T15:49:47.359Z,1.4
2023-01-10T15:50:58.649Z,1.4
2023-01-10T15:52:08.328Z,2.1
2023-01-10T15:53:36.403Z,1.2
2023-01-10T15:54:50.377Z,0.8
2023-01-10T15:55:59.040Z,1.4
2023-01-10T15:57:08.750Z,1.4
2023-01-10T15:58:25.315Z,1.8
2023-01-10T15:59:35.457Z,1.4
2023-01-10T16:00:45.293Z,1.1